sensor_id;sensor_type;location;lat;lon;timestamp;temperature;humidity
12335;DHT22;6233;51.560;9.986;2023-02-21T00:00:21;7.50;99.90
12335;DHT22;6233;51.560;9.986;2023-02-21T00:03:41;7.60;99.90
12335;DHT22;6233;51.560;9.986;2023-02-21T00:07:01;7.50;99.90
12335;DHT22;6233;51.560;9.986;2023-02-21T00:10:22;7.40;99.90
12335;DHT22;6233;51.560;9.986;2023-02-21T00:13:42;7.40;99.90
12335;DHT22;6233;51.560;9.986;2023-02-21T00:17:03;7.40;99.90
12335;DHT22;6233;51.560;9.986;2023-02-21T00:20:23;7.40;99.90
12335;DHT22;6233;51.560;9.986;2023-02-21T00:23:43;7.40;99.90
12335;DHT22;6233;51.560;9.986;2023-02-21T00:27:04;7.30;99.90
12335;DHT22;6233;51.560;9.986;2023-02-21T00:30:24;7.30;99.90
12335;DHT22;6233;51.560;9.986;2023-02-21T00:33:45;7.30;99.90
12335;DHT22;6233;51.560;9.986;2023-02-21T00:37:05;7.30;99.90
12335;DHT22;6233;51.560;9.986;2023-02-21T00:40:25;7.30;99.90
12335;DHT22;6233;51.560;9.986;2023-02-21T00:43:46;7.30;99.90
12335;DHT22;6233;51.560;9.986;2023-02-21T00:47:06;7.30;99.90
12335;DHT22;6233;51.560;9.986;2023-02-21T00:50:27;7.30;99.90
12335;DHT22;6233;51.560;9.986;2023-02-21T00:53:47;7.20;99.90
12335;DHT22;6233;51.560;9.986;2023-02-21T00:57:07;7.30;99.90
12335;DHT22;6233;51.560;9.986;2023-02-21T01:00:28;7.20;99.90
12335;DHT22;6233;51.560;9.986;2023-02-21T01:03:48;7.20;99.90
12335;DHT22;6233;51.560;9.986;2023-02-21T01:07:09;7.20;99.90
12335;DHT22;6233;51.560;9.986;2023-02-21T01:10:29;7.30;99.90
12335;DHT22;6233;51.560;9.986;2023-02-21T01:13:50;7.30;99.90
12335;DHT22;6233;51.560;9.986;2023-02-21T01:17:11;7.30;99.90
12335;DHT22;6233;51.560;9.986;2023-02-21T01:20:31;7.30;99.90
12335;DHT22;6233;51.560;9.986;2023-02-21T01:23:51;7.30;99.90
12335;DHT22;6233;51.560;9.986;2023-02-21T01:27:12;7.30;99.90
12335;DHT22;6233;51.560;9.986;2023-02-21T01:30:33;7.30;99.90
12335;DHT22;6233;51.560;9.986;2023-02-21T01:33:53;7.30;99.90
12335;DHT22;6233;51.560;9.986;2023-02-21T01:37:13;7.30;99.90
12335;DHT22;6233;51.560;9.986;2023-02-21T01:40:36;7.40;99.90
12335;DHT22;6233;51.560;9.986;2023-02-21T01:43:59;7.40;99.90
12335;DHT22;6233;51.560;9.986;2023-02-21T01:47:20;7.30;99.90
12335;DHT22;6233;51.560;9.986;2023-02-21T01:50:40;7.30;99.90
12335;DHT22;6233;51.560;9.986;2023-02-21T01:54:02;7.20;99.90
12335;DHT22;6233;51.560;9.986;2023-02-21T01:57:23;7.30;99.90
12335;DHT22;6233;51.560;9.986;2023-02-21T02:00:44;7.20;99.90
12335;DHT22;6233;51.560;9.986;2023-02-21T02:04:04;7.30;99.90
12335;DHT22;6233;51.560;9.986;2023-02-21T02:07:25;7.30;99.90
12335;DHT22;6233;51.560;9.986;2023-02-21T02:10:47;7.30;99.90
12335;DHT22;6233;51.560;9.986;2023-02-21T02:24:34;7.30;99.90
12335;DHT22;6233;51.560;9.986;2023-02-21T02:28:05;7.30;99.90
12335;DHT22;6233;51.560;9.986;2023-02-21T02:38:30;7.40;99.90
12335;DHT22;6233;51.560;9.986;2023-02-21T02:45:47;7.40;99.90
12335;DHT22;6233;51.560;9.986;2023-02-21T02:51:52;7.50;99.90
12335;DHT22;6233;51.560;9.986;2023-02-21T02:58:36;7.50;99.90
12335;DHT22;6233;51.560;9.986;2023-02-21T03:05:07;7.60;99.90
12335;DHT22;6233;51.560;9.986;2023-02-21T03:08:24;7.60;99.90
12335;DHT22;6233;51.560;9.986;2023-02-21T03:11:28;7.50;99.90
12335;DHT22;6233;51.560;9.986;2023-02-21T03:14:44;7.50;99.90
12335;DHT22;6233;51.560;9.986;2023-02-21T03:18:02;7.60;99.90
12335;DHT22;6233;51.560;9.986;2023-02-21T03:21:10;7.60;99.90
12335;DHT22;6233;51.560;9.986;2023-02-21T03:24:13;7.60;99.90
12335;DHT22;6233;51.560;9.986;2023-02-21T03:27:17;7.60;99.90
12335;DHT22;6233;51.560;9.986;2023-02-21T03:30:20;7.60;99.90
12335;DHT22;6233;51.560;9.986;2023-02-21T03:33:22;7.60;99.90
12335;DHT22;6233;51.560;9.986;2023-02-21T03:36:24;7.60;99.90
12335;DHT22;6233;51.560;9.986;2023-02-21T03:39:26;7.60;99.90
12335;DHT22;6233;51.560;9.986;2023-02-21T03:42:29;7.60;99.90
12335;DHT22;6233;51.560;9.986;2023-02-21T03:45:30;7.70;99.90
12335;DHT22;6233;51.560;9.986;2023-02-21T03:48:32;7.70;99.90
12335;DHT22;6233;51.560;9.986;2023-02-21T03:51:34;7.70;99.90
12335;DHT22;6233;51.560;9.986;2023-02-21T03:54:36;7.70;99.90
12335;DHT22;6233;51.560;9.986;2023-02-21T03:57:38;7.70;99.90
12335;DHT22;6233;51.560;9.986;2023-02-21T04:00:40;7.70;99.90
12335;DHT22;6233;51.560;9.986;2023-02-21T04:03:42;7.70;99.90
12335;DHT22;6233;51.560;9.986;2023-02-21T04:06:43;7.70;99.90
12335;DHT22;6233;51.560;9.986;2023-02-21T04:09:46;7.70;99.90
12335;DHT22;6233;51.560;9.986;2023-02-21T04:12:48;7.70;99.90
12335;DHT22;6233;51.560;9.986;2023-02-21T04:15:50;7.70;99.90
12335;DHT22;6233;51.560;9.986;2023-02-21T04:18:52;7.70;99.90
12335;DHT22;6233;51.560;9.986;2023-02-21T04:21:53;7.60;99.90
12335;DHT22;6233;51.560;9.986;2023-02-21T04:24:55;7.70;99.90
12335;DHT22;6233;51.560;9.986;2023-02-21T04:27:57;7.60;99.90
12335;DHT22;6233;51.560;9.986;2023-02-21T04:30:58;7.60;99.90
12335;DHT22;6233;51.560;9.986;2023-02-21T04:34:00;7.60;99.90
12335;DHT22;6233;51.560;9.986;2023-02-21T04:37:12;7.60;99.90
12335;DHT22;6233;51.560;9.986;2023-02-21T04:40:14;7.60;99.90
12335;DHT22;6233;51.560;9.986;2023-02-21T04:43:16;7.60;99.90
12335;DHT22;6233;51.560;9.986;2023-02-21T04:46:18;7.60;99.90
12335;DHT22;6233;51.560;9.986;2023-02-21T04:49:19;7.60;99.90
12335;DHT22;6233;51.560;9.986;2023-02-21T04:52:21;7.60;99.90
12335;DHT22;6233;51.560;9.986;2023-02-21T04:55:23;7.60;99.90
12335;DHT22;6233;51.560;9.986;2023-02-21T04:58:25;7.60;99.90
12335;DHT22;6233;51.560;9.986;2023-02-21T05:01:31;7.60;99.90
12335;DHT22;6233;51.560;9.986;2023-02-21T05:04:35;7.60;99.90
12335;DHT22;6233;51.560;9.986;2023-02-21T05:07:37;7.60;99.90
12335;DHT22;6233;51.560;9.986;2023-02-21T05:10:38;7.60;99.90
12335;DHT22;6233;51.560;9.986;2023-02-21T05:13:46;7.60;99.90
12335;DHT22;6233;51.560;9.986;2023-02-21T05:16:48;7.60;99.90
12335;DHT22;6233;51.560;9.986;2023-02-21T05:19:50;7.60;99.90
12335;DHT22;6233;51.560;9.986;2023-02-21T05:22:52;7.60;99.90
12335;DHT22;6233;51.560;9.986;2023-02-21T05:25:59;7.70;99.90
12335;DHT22;6233;51.560;9.986;2023-02-21T05:29:01;7.70;99.90
12335;DHT22;6233;51.560;9.986;2023-02-21T05:32:03;7.70;99.90
12335;DHT22;6233;51.560;9.986;2023-02-21T05:35:05;7.70;99.90
12335;DHT22;6233;51.560;9.986;2023-02-21T05:38:07;7.70;99.90
12335;DHT22;6233;51.560;9.986;2023-02-21T05:41:09;7.70;99.90
12335;DHT22;6233;51.560;9.986;2023-02-21T05:44:11;7.70;99.90
12335;DHT22;6233;51.560;9.986;2023-02-21T05:47:13;7.70;99.90
12335;DHT22;6233;51.560;9.986;2023-02-21T05:50:15;7.70;99.90
12335;DHT22;6233;51.560;9.986;2023-02-21T05:53:17;7.70;99.90
12335;DHT22;6233;51.560;9.986;2023-02-21T05:56:20;7.70;99.90
12335;DHT22;6233;51.560;9.986;2023-02-21T05:59:22;7.80;99.90
12335;DHT22;6233;51.560;9.986;2023-02-21T06:02:23;7.70;99.90
12335;DHT22;6233;51.560;9.986;2023-02-21T06:05:25;7.70;99.90
12335;DHT22;6233;51.560;9.986;2023-02-21T06:08:27;7.70;99.90
12335;DHT22;6233;51.560;9.986;2023-02-21T06:11:31;7.80;99.90
12335;DHT22;6233;51.560;9.986;2023-02-21T06:14:34;7.70;99.90
12335;DHT22;6233;51.560;9.986;2023-02-21T06:17:36;7.80;99.90
12335;DHT22;6233;51.560;9.986;2023-02-21T06:20:38;7.80;99.90
12335;DHT22;6233;51.560;9.986;2023-02-21T06:23:39;7.70;99.90
12335;DHT22;6233;51.560;9.986;2023-02-21T06:26:41;7.80;99.90
12335;DHT22;6233;51.560;9.986;2023-02-21T06:29:43;7.80;99.90
12335;DHT22;6233;51.560;9.986;2023-02-21T06:32:45;7.70;99.90
12335;DHT22;6233;51.560;9.986;2023-02-21T06:35:46;7.80;99.90
12335;DHT22;6233;51.560;9.986;2023-02-21T06:38:50;7.80;99.90
12335;DHT22;6233;51.560;9.986;2023-02-21T06:41:52;7.70;99.90
12335;DHT22;6233;51.560;9.986;2023-02-21T06:44:54;7.80;99.90
12335;DHT22;6233;51.560;9.986;2023-02-21T06:47:55;7.80;99.90
12335;DHT22;6233;51.560;9.986;2023-02-21T06:50:57;7.70;99.90
12335;DHT22;6233;51.560;9.986;2023-02-21T06:53:59;7.80;99.90
12335;DHT22;6233;51.560;9.986;2023-02-21T06:57:01;7.80;99.90
12335;DHT22;6233;51.560;9.986;2023-02-21T07:00:06;7.80;99.90
12335;DHT22;6233;51.560;9.986;2023-02-21T07:03:08;7.80;99.90
12335;DHT22;6233;51.560;9.986;2023-02-21T07:06:10;7.80;99.90
12335;DHT22;6233;51.560;9.986;2023-02-21T07:09:12;7.80;99.90
12335;DHT22;6233;51.560;9.986;2023-02-21T07:12:13;7.80;99.90
12335;DHT22;6233;51.560;9.986;2023-02-21T07:15:15;7.80;99.90
12335;DHT22;6233;51.560;9.986;2023-02-21T07:18:17;7.90;99.90
12335;DHT22;6233;51.560;9.986;2023-02-21T07:21:19;7.90;99.90
12335;DHT22;6233;51.560;9.986;2023-02-21T07:24:21;7.90;99.90
12335;DHT22;6233;51.560;9.986;2023-02-21T07:27:23;7.90;99.90
12335;DHT22;6233;51.560;9.986;2023-02-21T07:30:25;7.90;99.90
12335;DHT22;6233;51.560;9.986;2023-02-21T07:33:29;7.90;99.90
12335;DHT22;6233;51.560;9.986;2023-02-21T07:36:31;7.90;99.90
12335;DHT22;6233;51.560;9.986;2023-02-21T07:39:32;8.00;99.90
12335;DHT22;6233;51.560;9.986;2023-02-21T07:42:34;8.00;99.90
12335;DHT22;6233;51.560;9.986;2023-02-21T07:45:36;8.00;99.90
12335;DHT22;6233;51.560;9.986;2023-02-21T07:48:38;8.00;99.90
12335;DHT22;6233;51.560;9.986;2023-02-21T07:51:40;8.00;99.90
12335;DHT22;6233;51.560;9.986;2023-02-21T07:54:41;8.00;99.90
12335;DHT22;6233;51.560;9.986;2023-02-21T07:57:44;8.00;99.90
12335;DHT22;6233;51.560;9.986;2023-02-21T08:00:46;8.00;99.90
12335;DHT22;6233;51.560;9.986;2023-02-21T08:03:48;8.00;99.90
12335;DHT22;6233;51.560;9.986;2023-02-21T08:06:50;8.00;99.90
12335;DHT22;6233;51.560;9.986;2023-02-21T08:09:52;8.00;99.90
12335;DHT22;6233;51.560;9.986;2023-02-21T08:12:54;8.00;99.90
12335;DHT22;6233;51.560;9.986;2023-02-21T08:15:55;8.10;99.90
12335;DHT22;6233;51.560;9.986;2023-02-21T08:18:57;8.10;99.90
12335;DHT22;6233;51.560;9.986;2023-02-21T08:21:59;8.10;99.90
12335;DHT22;6233;51.560;9.986;2023-02-21T08:25:01;8.10;99.90
12335;DHT22;6233;51.560;9.986;2023-02-21T08:28:03;8.10;99.90
12335;DHT22;6233;51.560;9.986;2023-02-21T08:31:05;8.10;99.90
12335;DHT22;6233;51.560;9.986;2023-02-21T08:34:08;8.00;99.90
12335;DHT22;6233;51.560;9.986;2023-02-21T08:37:09;8.10;99.90
12335;DHT22;6233;51.560;9.986;2023-02-21T08:40:18;8.00;99.90
12335;DHT22;6233;51.560;9.986;2023-02-21T08:43:20;8.00;99.90
12335;DHT22;6233;51.560;9.986;2023-02-21T08:46:29;8.00;99.90
12335;DHT22;6233;51.560;9.986;2023-02-21T08:49:30;8.00;99.90
12335;DHT22;6233;51.560;9.986;2023-02-21T08:52:32;8.00;99.90
12335;DHT22;6233;51.560;9.986;2023-02-21T08:55:34;7.90;99.90
12335;DHT22;6233;51.560;9.986;2023-02-21T08:58:35;8.00;99.90
12335;DHT22;6233;51.560;9.986;2023-02-21T09:01:38;7.90;99.90
12335;DHT22;6233;51.560;9.986;2023-02-21T09:04:43;8.00;99.90
12335;DHT22;6233;51.560;9.986;2023-02-21T09:07:49;8.00;99.90
12335;DHT22;6233;51.560;9.986;2023-02-21T09:10:51;7.90;99.90
12335;DHT22;6233;51.560;9.986;2023-02-21T09:13:53;7.90;99.90
12335;DHT22;6233;51.560;9.986;2023-02-21T09:16:56;7.90;99.90
12335;DHT22;6233;51.560;9.986;2023-02-21T09:20:07;8.00;99.90
12335;DHT22;6233;51.560;9.986;2023-02-21T09:23:09;8.00;99.90
12335;DHT22;6233;51.560;9.986;2023-02-21T09:26:42;8.00;99.90
12335;DHT22;6233;51.560;9.986;2023-02-21T09:29:44;8.00;99.90
12335;DHT22;6233;51.560;9.986;2023-02-21T09:32:48;8.00;99.90
12335;DHT22;6233;51.560;9.986;2023-02-21T09:35:49;8.00;99.90
12335;DHT22;6233;51.560;9.986;2023-02-21T09:38:52;8.00;99.90
12335;DHT22;6233;51.560;9.986;2023-02-21T09:41:54;8.10;99.90
12335;DHT22;6233;51.560;9.986;2023-02-21T09:44:58;8.10;99.90
12335;DHT22;6233;51.560;9.986;2023-02-21T09:48:14;8.10;99.90
12335;DHT22;6233;51.560;9.986;2023-02-21T09:51:17;8.20;99.90
12335;DHT22;6233;51.560;9.986;2023-02-21T09:54:32;8.20;99.90
12335;DHT22;6233;51.560;9.986;2023-02-21T09:57:35;8.20;99.90
12335;DHT22;6233;51.560;9.986;2023-02-21T10:00:37;8.10;99.90
12335;DHT22;6233;51.560;9.986;2023-02-21T10:07:21;8.50;99.90
12335;DHT22;6233;51.560;9.986;2023-02-21T10:10:51;8.70;99.90
12335;DHT22;6233;51.560;9.986;2023-02-21T10:14:05;8.80;99.90
12335;DHT22;6233;51.560;9.986;2023-02-21T10:17:20;8.90;99.90
12335;DHT22;6233;51.560;9.986;2023-02-21T10:20:29;8.90;99.90
12335;DHT22;6233;51.560;9.986;2023-02-21T10:23:40;9.10;99.90
12335;DHT22;6233;51.560;9.986;2023-02-21T10:30:07;9.30;99.90
12335;DHT22;6233;51.560;9.986;2023-02-21T10:33:11;9.30;99.90
12335;DHT22;6233;51.560;9.986;2023-02-21T10:36:16;9.40;99.90
12335;DHT22;6233;51.560;9.986;2023-02-21T10:39:23;9.50;99.90
12335;DHT22;6233;51.560;9.986;2023-02-21T10:42:51;9.60;99.90
12335;DHT22;6233;51.560;9.986;2023-02-21T10:46:00;9.70;99.90
12335;DHT22;6233;51.560;9.986;2023-02-21T10:49:24;9.80;99.90
12335;DHT22;6233;51.560;9.986;2023-02-21T10:52:36;9.90;99.90
12335;DHT22;6233;51.560;9.986;2023-02-21T10:55:38;9.90;99.90
12335;DHT22;6233;51.560;9.986;2023-02-21T11:01:57;10.00;99.90
12335;DHT22;6233;51.560;9.986;2023-02-21T11:05:16;10.00;99.90
12335;DHT22;6233;51.560;9.986;2023-02-21T11:08:43;10.00;99.90
12335;DHT22;6233;51.560;9.986;2023-02-21T11:11:44;10.10;99.90
12335;DHT22;6233;51.560;9.986;2023-02-21T11:18:05;10.30;99.90
12335;DHT22;6233;51.560;9.986;2023-02-21T11:21:17;10.30;99.90
12335;DHT22;6233;51.560;9.986;2023-02-21T11:24:19;10.20;99.90
12335;DHT22;6233;51.560;9.986;2023-02-21T11:27:21;10.10;99.90
12335;DHT22;6233;51.560;9.986;2023-02-21T11:30:23;10.10;99.90
12335;DHT22;6233;51.560;9.986;2023-02-21T11:33:25;10.10;99.90
12335;DHT22;6233;51.560;9.986;2023-02-21T11:36:30;10.10;99.90
12335;DHT22;6233;51.560;9.986;2023-02-21T11:39:33;10.00;99.90
12335;DHT22;6233;51.560;9.986;2023-02-21T11:49:16;10.00;99.90
12335;DHT22;6233;51.560;9.986;2023-02-21T11:52:43;10.00;99.90
12335;DHT22;6233;51.560;9.986;2023-02-21T11:55:58;10.00;99.90
12335;DHT22;6233;51.560;9.986;2023-02-21T11:59:11;10.10;99.90
12335;DHT22;6233;51.560;9.986;2023-02-21T12:06:05;10.20;99.90
12335;DHT22;6233;51.560;9.986;2023-02-21T12:10:28;10.20;99.90
12335;DHT22;6233;51.560;9.986;2023-02-21T12:20:24;10.20;99.90
12335;DHT22;6233;51.560;9.986;2023-02-21T12:29:57;10.40;99.90
12335;DHT22;6233;51.560;9.986;2023-02-21T12:47:11;10.50;99.90
12335;DHT22;6233;51.560;9.986;2023-02-21T12:50:39;10.50;99.90
12335;DHT22;6233;51.560;9.986;2023-02-21T12:56:48;10.60;99.90
12335;DHT22;6233;51.560;9.986;2023-02-21T13:00:21;10.70;99.90
12335;DHT22;6233;51.560;9.986;2023-02-21T13:06:47;10.70;99.90
12335;DHT22;6233;51.560;9.986;2023-02-21T13:10:14;10.60;99.90
12335;DHT22;6233;51.560;9.986;2023-02-21T13:13:21;10.60;99.90
12335;DHT22;6233;51.560;9.986;2023-02-21T13:16:25;10.50;99.90
12335;DHT22;6233;51.560;9.986;2023-02-21T13:19:35;10.60;99.90
12335;DHT22;6233;51.560;9.986;2023-02-21T13:29:48;10.70;99.90
12335;DHT22;6233;51.560;9.986;2023-02-21T13:32:54;10.60;99.90
12335;DHT22;6233;51.560;9.986;2023-02-21T13:35:58;10.60;99.90
12335;DHT22;6233;51.560;9.986;2023-02-21T13:42:18;10.60;99.90
12335;DHT22;6233;51.560;9.986;2023-02-21T13:45:25;10.60;99.90
12335;DHT22;6233;51.560;9.986;2023-02-21T13:48:28;10.60;99.90
12335;DHT22;6233;51.560;9.986;2023-02-21T13:51:49;10.60;99.90
12335;DHT22;6233;51.560;9.986;2023-02-21T14:01:38;10.60;99.90
12335;DHT22;6233;51.560;9.986;2023-02-21T14:08:07;10.60;99.90
12335;DHT22;6233;51.560;9.986;2023-02-21T14:11:24;10.60;99.90
12335;DHT22;6233;51.560;9.986;2023-02-21T14:14:31;10.60;99.90
12335;DHT22;6233;51.560;9.986;2023-02-21T14:17:35;10.60;99.90
12335;DHT22;6233;51.560;9.986;2023-02-21T14:20:37;10.60;99.90
12335;DHT22;6233;51.560;9.986;2023-02-21T14:23:48;10.50;99.90
12335;DHT22;6233;51.560;9.986;2023-02-21T14:33:24;10.50;99.90
12335;DHT22;6233;51.560;9.986;2023-02-21T14:36:28;10.50;99.90
12335;DHT22;6233;51.560;9.986;2023-02-21T14:39:35;10.40;99.90
12335;DHT22;6233;51.560;9.986;2023-02-21T15:00:16;10.20;99.90
12335;DHT22;6233;51.560;9.986;2023-02-21T15:03:28;10.10;99.90
12335;DHT22;6233;51.560;9.986;2023-02-21T15:06:32;10.00;99.90
12335;DHT22;6233;51.560;9.986;2023-02-21T15:09:34;10.00;99.90
12335;DHT22;6233;51.560;9.986;2023-02-21T15:12:50;10.00;99.90
12335;DHT22;6233;51.560;9.986;2023-02-21T15:16:05;10.00;99.90
12335;DHT22;6233;51.560;9.986;2023-02-21T15:23:23;9.90;99.90
12335;DHT22;6233;51.560;9.986;2023-02-21T15:26:31;9.90;99.90
12335;DHT22;6233;51.560;9.986;2023-02-21T15:29:34;9.90;99.90
12335;DHT22;6233;51.560;9.986;2023-02-21T15:32:36;10.00;99.90
12335;DHT22;6233;51.560;9.986;2023-02-21T15:35:52;10.00;99.90
12335;DHT22;6233;51.560;9.986;2023-02-21T15:41:56;10.00;99.90
12335;DHT22;6233;51.560;9.986;2023-02-21T15:45:28;10.00;99.90
12335;DHT22;6233;51.560;9.986;2023-02-21T15:48:28;10.00;99.90
12335;DHT22;6233;51.560;9.986;2023-02-21T15:51:38;10.00;99.90
12335;DHT22;6233;51.560;9.986;2023-02-21T15:54:43;10.00;99.90
12335;DHT22;6233;51.560;9.986;2023-02-21T15:57:58;10.00;99.90
12335;DHT22;6233;51.560;9.986;2023-02-21T16:01:10;10.00;99.90
12335;DHT22;6233;51.560;9.986;2023-02-21T16:04:37;10.00;99.90
12335;DHT22;6233;51.560;9.986;2023-02-21T16:07:39;9.90;99.90
12335;DHT22;6233;51.560;9.986;2023-02-21T16:10:42;9.90;99.90
12335;DHT22;6233;51.560;9.986;2023-02-21T16:13:54;9.90;99.90
12335;DHT22;6233;51.560;9.986;2023-02-21T16:17:14;9.80;99.90
12335;DHT22;6233;51.560;9.986;2023-02-21T16:20:19;9.80;99.90
12335;DHT22;6233;51.560;9.986;2023-02-21T16:23:37;9.70;99.90
12335;DHT22;6233;51.560;9.986;2023-02-21T16:26:40;9.70;99.90
12335;DHT22;6233;51.560;9.986;2023-02-21T16:29:41;9.70;99.90
12335;DHT22;6233;51.560;9.986;2023-02-21T16:32:45;9.70;99.90
12335;DHT22;6233;51.560;9.986;2023-02-21T16:35:47;9.70;99.90
12335;DHT22;6233;51.560;9.986;2023-02-21T16:38:48;9.60;99.90
12335;DHT22;6233;51.560;9.986;2023-02-21T16:41:50;9.60;99.90
12335;DHT22;6233;51.560;9.986;2023-02-21T16:44:52;9.60;99.90
12335;DHT22;6233;51.560;9.986;2023-02-21T16:47:56;9.60;99.90
12335;DHT22;6233;51.560;9.986;2023-02-21T16:51:27;9.60;99.90
12335;DHT22;6233;51.560;9.986;2023-02-21T16:54:34;9.60;99.90
12335;DHT22;6233;51.560;9.986;2023-02-21T16:57:35;9.60;99.90
12335;DHT22;6233;51.560;9.986;2023-02-21T17:00:37;9.50;99.90
12335;DHT22;6233;51.560;9.986;2023-02-21T17:03:39;9.50;99.90
12335;DHT22;6233;51.560;9.986;2023-02-21T17:06:55;9.50;99.90
12335;DHT22;6233;51.560;9.986;2023-02-21T17:09:57;9.50;99.90
12335;DHT22;6233;51.560;9.986;2023-02-21T17:12:59;9.50;99.90
12335;DHT22;6233;51.560;9.986;2023-02-21T17:16:04;9.50;99.90
12335;DHT22;6233;51.560;9.986;2023-02-21T17:19:06;9.50;99.90
12335;DHT22;6233;51.560;9.986;2023-02-21T17:22:12;9.50;99.90
12335;DHT22;6233;51.560;9.986;2023-02-21T17:25:15;9.50;99.90
12335;DHT22;6233;51.560;9.986;2023-02-21T17:28:17;9.50;99.90
12335;DHT22;6233;51.560;9.986;2023-02-21T17:31:19;9.50;99.90
12335;DHT22;6233;51.560;9.986;2023-02-21T17:34:21;9.50;99.90
12335;DHT22;6233;51.560;9.986;2023-02-21T17:37:23;9.50;99.90
12335;DHT22;6233;51.560;9.986;2023-02-21T17:40:24;9.40;99.90
12335;DHT22;6233;51.560;9.986;2023-02-21T17:43:26;9.40;99.90
12335;DHT22;6233;51.560;9.986;2023-02-21T17:46:28;9.40;99.90
12335;DHT22;6233;51.560;9.986;2023-02-21T17:49:29;9.30;99.90
12335;DHT22;6233;51.560;9.986;2023-02-21T17:52:31;9.20;99.90
12335;DHT22;6233;51.560;9.986;2023-02-21T17:55:33;9.10;99.90
12335;DHT22;6233;51.560;9.986;2023-02-21T17:58:35;9.00;99.90
12335;DHT22;6233;51.560;9.986;2023-02-21T18:01:36;9.00;99.90
12335;DHT22;6233;51.560;9.986;2023-02-21T18:04:39;9.00;99.90
12335;DHT22;6233;51.560;9.986;2023-02-21T18:07:45;9.00;99.90
12335;DHT22;6233;51.560;9.986;2023-02-21T18:10:47;9.00;99.90
12335;DHT22;6233;51.560;9.986;2023-02-21T18:13:50;9.00;99.90
12335;DHT22;6233;51.560;9.986;2023-02-21T18:16:52;9.00;99.90
12335;DHT22;6233;51.560;9.986;2023-02-21T18:19:56;9.00;99.90
12335;DHT22;6233;51.560;9.986;2023-02-21T18:22:58;9.10;99.90
12335;DHT22;6233;51.560;9.986;2023-02-21T18:26:01;9.10;99.90
12335;DHT22;6233;51.560;9.986;2023-02-21T18:29:04;9.10;99.90
12335;DHT22;6233;51.560;9.986;2023-02-21T18:32:06;9.10;99.90
12335;DHT22;6233;51.560;9.986;2023-02-21T18:35:08;9.10;99.90
12335;DHT22;6233;51.560;9.986;2023-02-21T18:38:10;9.10;99.90
12335;DHT22;6233;51.560;9.986;2023-02-21T18:41:15;9.10;99.90
12335;DHT22;6233;51.560;9.986;2023-02-21T18:44:18;9.10;99.90
12335;DHT22;6233;51.560;9.986;2023-02-21T18:47:20;9.10;99.90
12335;DHT22;6233;51.560;9.986;2023-02-21T18:50:34;9.20;99.90
12335;DHT22;6233;51.560;9.986;2023-02-21T18:53:37;9.20;99.90
12335;DHT22;6233;51.560;9.986;2023-02-21T18:56:47;9.30;99.90
12335;DHT22;6233;51.560;9.986;2023-02-21T18:59:49;9.30;99.90
12335;DHT22;6233;51.560;9.986;2023-02-21T19:02:51;9.30;99.90
12335;DHT22;6233;51.560;9.986;2023-02-21T19:05:53;9.30;99.90
12335;DHT22;6233;51.560;9.986;2023-02-21T19:08:54;9.30;99.90
12335;DHT22;6233;51.560;9.986;2023-02-21T19:11:56;9.20;99.90
12335;DHT22;6233;51.560;9.986;2023-02-21T19:14:58;9.20;99.90
12335;DHT22;6233;51.560;9.986;2023-02-21T19:18:00;9.30;99.90
12335;DHT22;6233;51.560;9.986;2023-02-21T19:21:01;9.30;99.90
12335;DHT22;6233;51.560;9.986;2023-02-21T19:24:03;9.40;99.90
12335;DHT22;6233;51.560;9.986;2023-02-21T19:27:05;9.30;99.90
12335;DHT22;6233;51.560;9.986;2023-02-21T19:30:07;9.40;99.90
12335;DHT22;6233;51.560;9.986;2023-02-21T19:33:20;9.40;99.90
12335;DHT22;6233;51.560;9.986;2023-02-21T19:36:24;9.40;99.90
12335;DHT22;6233;51.560;9.986;2023-02-21T19:39:26;9.40;99.90
12335;DHT22;6233;51.560;9.986;2023-02-21T19:42:28;9.30;99.90
12335;DHT22;6233;51.560;9.986;2023-02-21T19:45:29;9.30;99.90
12335;DHT22;6233;51.560;9.986;2023-02-21T19:48:47;9.30;99.90
12335;DHT22;6233;51.560;9.986;2023-02-21T19:51:52;9.30;99.90
12335;DHT22;6233;51.560;9.986;2023-02-21T19:54:54;9.30;99.90
12335;DHT22;6233;51.560;9.986;2023-02-21T19:57:56;9.20;99.90
12335;DHT22;6233;51.560;9.986;2023-02-21T20:00:57;9.30;99.90
12335;DHT22;6233;51.560;9.986;2023-02-21T20:04:00;9.30;99.90
12335;DHT22;6233;51.560;9.986;2023-02-21T20:07:02;9.30;99.90
12335;DHT22;6233;51.560;9.986;2023-02-21T20:10:04;9.30;99.90
12335;DHT22;6233;51.560;9.986;2023-02-21T20:13:06;9.30;99.90
12335;DHT22;6233;51.560;9.986;2023-02-21T20:16:09;9.30;99.90
12335;DHT22;6233;51.560;9.986;2023-02-21T20:19:12;9.30;99.90
12335;DHT22;6233;51.560;9.986;2023-02-21T20:22:14;9.30;99.90
12335;DHT22;6233;51.560;9.986;2023-02-21T20:25:16;9.20;99.90
12335;DHT22;6233;51.560;9.986;2023-02-21T20:28:18;9.20;99.90
12335;DHT22;6233;51.560;9.986;2023-02-21T20:31:24;9.20;99.90
12335;DHT22;6233;51.560;9.986;2023-02-21T20:34:26;9.20;99.90
12335;DHT22;6233;51.560;9.986;2023-02-21T20:37:28;9.20;99.90
12335;DHT22;6233;51.560;9.986;2023-02-21T20:40:32;9.20;99.90
12335;DHT22;6233;51.560;9.986;2023-02-21T20:43:35;9.20;99.90
12335;DHT22;6233;51.560;9.986;2023-02-21T20:46:37;9.10;99.90
12335;DHT22;6233;51.560;9.986;2023-02-21T20:49:44;9.10;99.90
12335;DHT22;6233;51.560;9.986;2023-02-21T20:52:47;9.10;99.90
12335;DHT22;6233;51.560;9.986;2023-02-21T20:55:52;9.10;99.90
12335;DHT22;6233;51.560;9.986;2023-02-21T20:59:21;9.10;99.90
12335;DHT22;6233;51.560;9.986;2023-02-21T21:02:23;9.10;99.90
12335;DHT22;6233;51.560;9.986;2023-02-21T21:05:24;9.10;99.90
12335;DHT22;6233;51.560;9.986;2023-02-21T21:08:31;9.10;99.90
12335;DHT22;6233;51.560;9.986;2023-02-21T21:11:33;9.10;99.90
12335;DHT22;6233;51.560;9.986;2023-02-21T21:14:38;9.10;99.90
12335;DHT22;6233;51.560;9.986;2023-02-21T21:18:07;9.10;99.90
12335;DHT22;6233;51.560;9.986;2023-02-21T21:21:10;9.10;99.90
12335;DHT22;6233;51.560;9.986;2023-02-21T21:24:12;9.10;99.90
12335;DHT22;6233;51.560;9.986;2023-02-21T21:27:13;9.00;99.90
12335;DHT22;6233;51.560;9.986;2023-02-21T21:30:17;9.00;99.90
12335;DHT22;6233;51.560;9.986;2023-02-21T21:33:23;9.00;99.90
12335;DHT22;6233;51.560;9.986;2023-02-21T21:36:24;9.00;99.90
12335;DHT22;6233;51.560;9.986;2023-02-21T21:39:27;8.90;99.90
12335;DHT22;6233;51.560;9.986;2023-02-21T21:42:29;8.90;99.90
12335;DHT22;6233;51.560;9.986;2023-02-21T21:45:30;8.90;99.90
12335;DHT22;6233;51.560;9.986;2023-02-21T21:48:34;8.90;99.90
12335;DHT22;6233;51.560;9.986;2023-02-21T21:51:39;8.80;99.90
12335;DHT22;6233;51.560;9.986;2023-02-21T21:54:45;8.80;99.90
12335;DHT22;6233;51.560;9.986;2023-02-21T21:57:47;8.80;99.90
12335;DHT22;6233;51.560;9.986;2023-02-21T22:00:53;8.80;99.90
12335;DHT22;6233;51.560;9.986;2023-02-21T22:03:55;8.80;99.90
12335;DHT22;6233;51.560;9.986;2023-02-21T22:06:57;8.80;99.90
12335;DHT22;6233;51.560;9.986;2023-02-21T22:09:58;8.80;99.90
12335;DHT22;6233;51.560;9.986;2023-02-21T22:13:00;8.80;99.90
12335;DHT22;6233;51.560;9.986;2023-02-21T22:16:10;8.90;99.90
12335;DHT22;6233;51.560;9.986;2023-02-21T22:19:11;8.90;99.90
12335;DHT22;6233;51.560;9.986;2023-02-21T22:22:13;8.90;99.90
12335;DHT22;6233;51.560;9.986;2023-02-21T22:25:18;8.80;99.90
12335;DHT22;6233;51.560;9.986;2023-02-21T22:28:20;8.80;99.90
12335;DHT22;6233;51.560;9.986;2023-02-21T22:31:21;8.80;99.90
12335;DHT22;6233;51.560;9.986;2023-02-21T22:34:23;8.70;99.90
12335;DHT22;6233;51.560;9.986;2023-02-21T22:37:25;8.80;99.90